sensor_id;sensor_type;location;lat;lon;timestamp;P1;durP1;ratioP1;P2;durP2;ratioP2
64367;SDS011;50692;53.314;-6.300;2023-05-16T00:01:47;3.83;;;1.80;;
64367;SDS011;50692;53.314;-6.300;2023-05-16T00:04:34;4.83;;;1.87;;
64367;SDS011;50692;53.314;-6.300;2023-05-16T00:07:20;2.83;;;1.80;;
64367;SDS011;50692;53.314;-6.300;2023-05-16T00:10:06;5.40;;;2.17;;
64367;SDS011;50692;53.314;-6.300;2023-05-16T00:12:52;3.27;;;1.80;;
64367;SDS011;50692;53.314;-6.300;2023-05-16T00:15:39;5.03;;;2.10;;
64367;SDS011;50692;53.314;-6.300;2023-05-16T00:18:24;4.20;;;2.00;;
64367;SDS011;50692;53.314;-6.300;2023-05-16T00:21:11;4.97;;;2.20;;
64367;SDS011;50692;53.314;-6.300;2023-05-16T00:23:57;4.40;;;1.77;;
64367;SDS011;50692;53.314;-6.300;2023-05-16T00:26:43;2.83;;;1.37;;
64367;SDS011;50692;53.314;-6.300;2023-05-16T00:29:30;2.90;;;1.43;;
64367;SDS011;50692;53.314;-6.300;2023-05-16T00:32:16;1.97;;;1.33;;
64367;SDS011;50692;53.314;-6.300;2023-05-16T00:35:03;2.93;;;1.63;;
64367;SDS011;50692;53.314;-6.300;2023-05-16T00:37:49;4.77;;;1.90;;
64367;SDS011;50692;53.314;-6.300;2023-05-16T00:40:35;3.23;;;1.40;;
64367;SDS011;50692;53.314;-6.300;2023-05-16T00:43:21;3.40;;;1.20;;
64367;SDS011;50692;53.314;-6.300;2023-05-16T00:46:07;3.33;;;1.33;;
64367;SDS011;50692;53.314;-6.300;2023-05-16T00:48:53;2.73;;;1.50;;
64367;SDS011;50692;53.314;-6.300;2023-05-16T00:51:39;2.93;;;1.47;;
64367;SDS011;50692;53.314;-6.300;2023-05-16T00:54:25;5.30;;;1.70;;
64367;SDS011;50692;53.314;-6.300;2023-05-16T00:57:13;3.47;;;1.47;;
64367;SDS011;50692;53.314;-6.300;2023-05-16T01:00:00;5.47;;;1.70;;
64367;SDS011;50692;53.314;-6.300;2023-05-16T01:02:47;4.53;;;1.73;;
64367;SDS011;50692;53.314;-6.300;2023-05-16T01:05:33;2.73;;;1.67;;
64367;SDS011;50692;53.314;-6.300;2023-05-16T01:08:19;3.23;;;1.57;;
64367;SDS011;50692;53.314;-6.300;2023-05-16T01:11:21;4.50;;;1.63;;
64367;SDS011;50692;53.314;-6.300;2023-05-16T01:14:17;3.67;;;2.03;;
64367;SDS011;50692;53.314;-6.300;2023-05-16T01:20:32;5.20;;;1.80;;
64367;SDS011;50692;53.314;-6.300;2023-05-16T01:23:59;3.63;;;2.00;;
64367;SDS011;50692;53.314;-6.300;2023-05-16T01:26:53;3.03;;;2.00;;
64367;SDS011;50692;53.314;-6.300;2023-05-16T01:29:40;4.30;;;2.20;;
64367;SDS011;50692;53.314;-6.300;2023-05-16T01:32:26;4.87;;;1.80;;
64367;SDS011;50692;53.314;-6.300;2023-05-16T01:35:13;4.43;;;2.07;;
64367;SDS011;50692;53.314;-6.300;2023-05-16T01:38:10;5.72;;;1.80;;
64367;SDS011;50692;53.314;-6.300;2023-05-16T01:41:06;4.57;;;1.77;;
64367;SDS011;50692;53.314;-6.300;2023-05-16T01:47:25;5.57;;;2.23;;
64367;SDS011;50692;53.314;-6.300;2023-05-16T01:50:15;5.17;;;2.60;;
64367;SDS011;50692;53.314;-6.300;2023-05-16T01:53:06;6.53;;;2.37;;
64367;SDS011;50692;53.314;-6.300;2023-05-16T01:55:56;3.70;;;2.30;;
64367;SDS011;50692;53.314;-6.300;2023-05-16T01:58:43;6.13;;;2.50;;
64367;SDS011;50692;53.314;-6.300;2023-05-16T02:01:31;5.83;;;2.17;;
64367;SDS011;50692;53.314;-6.300;2023-05-16T02:04:17;5.90;;;2.50;;
64367;SDS011;50692;53.314;-6.300;2023-05-16T02:07:03;3.50;;;2.43;;
64367;SDS011;50692;53.314;-6.300;2023-05-16T02:09:49;4.90;;;2.70;;
64367;SDS011;50692;53.314;-6.300;2023-05-16T02:12:35;5.27;;;2.80;;
64367;SDS011;50692;53.314;-6.300;2023-05-16T02:15:21;4.23;;;2.80;;
64367;SDS011;50692;53.314;-6.300;2023-05-16T02:18:07;4.40;;;2.67;;
64367;SDS011;50692;53.314;-6.300;2023-05-16T02:20:53;5.93;;;2.43;;
64367;SDS011;50692;53.314;-6.300;2023-05-16T02:23:39;5.23;;;2.30;;
64367;SDS011;50692;53.314;-6.300;2023-05-16T02:26:25;5.67;;;1.90;;
64367;SDS011;50692;53.314;-6.300;2023-05-16T02:29:11;4.60;;;2.03;;
64367;SDS011;50692;53.314;-6.300;2023-05-16T02:31:57;4.27;;;2.07;;
64367;SDS011;50692;53.314;-6.300;2023-05-16T02:34:43;3.57;;;2.10;;
64367;SDS011;50692;53.314;-6.300;2023-05-16T02:37:29;3.17;;;1.60;;
64367;SDS011;50692;53.314;-6.300;2023-05-16T02:40:14;3.50;;;1.60;;
64367;SDS011;50692;53.314;-6.300;2023-05-16T02:43:00;4.17;;;1.93;;
64367;SDS011;50692;53.314;-6.300;2023-05-16T02:45:46;3.77;;;1.70;;
64367;SDS011;50692;53.314;-6.300;2023-05-16T02:48:32;4.07;;;1.60;;
64367;SDS011;50692;53.314;-6.300;2023-05-16T02:51:21;4.07;;;1.60;;
64367;SDS011;50692;53.314;-6.300;2023-05-16T02:54:09;5.20;;;1.90;;
64367;SDS011;50692;53.314;-6.300;2023-05-16T02:56:55;4.37;;;1.90;;
64367;SDS011;50692;53.314;-6.300;2023-05-16T02:59:40;2.53;;;1.60;;
64367;SDS011;50692;53.314;-6.300;2023-05-16T03:02:26;3.30;;;2.10;;
64367;SDS011;50692;53.314;-6.300;2023-05-16T03:05:12;5.93;;;1.90;;
64367;SDS011;50692;53.314;-6.300;2023-05-16T03:07:58;4.37;;;1.67;;
64367;SDS011;50692;53.314;-6.300;2023-05-16T03:10:44;3.63;;;1.50;;
64367;SDS011;50692;53.314;-6.300;2023-05-16T03:13:29;3.73;;;1.60;;
64367;SDS011;50692;53.314;-6.300;2023-05-16T03:16:15;5.67;;;1.53;;
64367;SDS011;50692;53.314;-6.300;2023-05-16T03:19:01;3.83;;;1.43;;
64367;SDS011;50692;53.314;-6.300;2023-05-16T03:21:47;2.43;;;1.43;;
64367;SDS011;50692;53.314;-6.300;2023-05-16T03:24:33;3.30;;;1.40;;
64367;SDS011;50692;53.314;-6.300;2023-05-16T03:27:19;5.03;;;1.43;;
64367;SDS011;50692;53.314;-6.300;2023-05-16T03:30:05;4.00;;;1.63;;
64367;SDS011;50692;53.314;-6.300;2023-05-16T03:32:51;5.60;;;1.30;;
64367;SDS011;50692;53.314;-6.300;2023-05-16T03:35:37;3.70;;;1.70;;
64367;SDS011;50692;53.314;-6.300;2023-05-16T03:38:24;2.30;;;1.40;;
64367;SDS011;50692;53.314;-6.300;2023-05-16T03:41:10;5.27;;;1.60;;
64367;SDS011;50692;53.314;-6.300;2023-05-16T03:43:56;2.53;;;1.33;;
64367;SDS011;50692;53.314;-6.300;2023-05-16T03:46:43;3.20;;;1.30;;
64367;SDS011;50692;53.314;-6.300;2023-05-16T03:49:28;2.27;;;1.40;;
64367;SDS011;50692;53.314;-6.300;2023-05-16T03:52:14;2.57;;;1.57;;
64367;SDS011;50692;53.314;-6.300;2023-05-16T03:55:00;2.33;;;1.57;;
64367;SDS011;50692;53.314;-6.300;2023-05-16T03:57:48;3.20;;;1.40;;
64367;SDS011;50692;53.314;-6.300;2023-05-16T04:00:35;5.20;;;1.60;;
64367;SDS011;50692;53.314;-6.300;2023-05-16T04:03:21;2.53;;;1.50;;
64367;SDS011;50692;53.314;-6.300;2023-05-16T04:06:12;6.07;;;1.63;;
64367;SDS011;50692;53.314;-6.300;2023-05-16T04:08:58;4.23;;;1.40;;
64367;SDS011;50692;53.314;-6.300;2023-05-16T04:11:44;4.70;;;1.20;;
64367;SDS011;50692;53.314;-6.300;2023-05-16T04:14:30;4.37;;;1.50;;
64367;SDS011;50692;53.314;-6.300;2023-05-16T04:17:16;5.03;;;1.40;;
64367;SDS011;50692;53.314;-6.300;2023-05-16T04:20:02;2.90;;;1.27;;
64367;SDS011;50692;53.314;-6.300;2023-05-16T04:22:49;5.93;;;1.80;;
64367;SDS011;50692;53.314;-6.300;2023-05-16T04:25:36;4.23;;;1.37;;
64367;SDS011;50692;53.314;-6.300;2023-05-16T04:28:22;4.00;;;1.40;;
64367;SDS011;50692;53.314;-6.300;2023-05-16T04:31:09;2.53;;;1.33;;
64367;SDS011;50692;53.314;-6.300;2023-05-16T04:33:55;3.13;;;1.40;;
64367;SDS011;50692;53.314;-6.300;2023-05-16T04:36:42;4.57;;;1.80;;
64367;SDS011;50692;53.314;-6.300;2023-05-16T04:39:28;2.87;;;1.47;;
64367;SDS011;50692;53.314;-6.300;2023-05-16T04:42:14;4.97;;;1.87;;
64367;SDS011;50692;53.314;-6.300;2023-05-16T04:45:00;3.97;;;1.40;;
64367;SDS011;50692;53.314;-6.300;2023-05-16T04:47:48;3.33;;;1.30;;
64367;SDS011;50692;53.314;-6.300;2023-05-16T04:50:34;2.60;;;1.17;;
64367;SDS011;50692;53.314;-6.300;2023-05-16T04:53:19;5.03;;;1.60;;
64367;SDS011;50692;53.314;-6.300;2023-05-16T04:56:06;4.70;;;2.23;;
64367;SDS011;50692;53.314;-6.300;2023-05-16T04:58:53;3.10;;;1.43;;
64367;SDS011;50692;53.314;-6.300;2023-05-16T05:01:39;6.73;;;1.57;;
64367;SDS011;50692;53.314;-6.300;2023-05-16T05:04:25;2.97;;;1.50;;
64367;SDS011;50692;53.314;-6.300;2023-05-16T05:07:11;4.40;;;1.90;;
64367;SDS011;50692;53.314;-6.300;2023-05-16T05:09:58;3.23;;;2.10;;
64367;SDS011;50692;53.314;-6.300;2023-05-16T05:12:44;4.57;;;2.70;;
64367;SDS011;50692;53.314;-6.300;2023-05-16T05:15:30;6.17;;;2.10;;
64367;SDS011;50692;53.314;-6.300;2023-05-16T05:18:15;4.50;;;1.63;;
64367;SDS011;50692;53.314;-6.300;2023-05-16T05:21:01;4.03;;;1.73;;
64367;SDS011;50692;53.314;-6.300;2023-05-16T05:23:47;3.47;;;1.63;;
64367;SDS011;50692;53.314;-6.300;2023-05-16T05:26:34;5.10;;;1.60;;
64367;SDS011;50692;53.314;-6.300;2023-05-16T05:29:20;5.87;;;1.60;;
64367;SDS011;50692;53.314;-6.300;2023-05-16T05:32:06;6.57;;;2.00;;
64367;SDS011;50692;53.314;-6.300;2023-05-16T05:34:52;4.10;;;1.90;;
64367;SDS011;50692;53.314;-6.300;2023-05-16T05:37:38;3.33;;;1.53;;
64367;SDS011;50692;53.314;-6.300;2023-05-16T05:40:24;5.80;;;1.93;;
64367;SDS011;50692;53.314;-6.300;2023-05-16T05:43:10;8.63;;;1.80;;
64367;SDS011;50692;53.314;-6.300;2023-05-16T05:45:56;3.27;;;1.70;;
64367;SDS011;50692;53.314;-6.300;2023-05-16T05:48:42;5.37;;;1.60;;
64367;SDS011;50692;53.314;-6.300;2023-05-16T05:51:28;4.20;;;2.00;;
64367;SDS011;50692;53.314;-6.300;2023-05-16T05:54:14;3.90;;;1.90;;
64367;SDS011;50692;53.314;-6.300;2023-05-16T05:57:00;6.40;;;2.10;;
64367;SDS011;50692;53.314;-6.300;2023-05-16T05:59:45;4.87;;;1.90;;
64367;SDS011;50692;53.314;-6.300;2023-05-16T06:02:31;5.97;;;2.27;;
64367;SDS011;50692;53.314;-6.300;2023-05-16T06:05:17;5.07;;;1.97;;
64367;SDS011;50692;53.314;-6.300;2023-05-16T06:08:03;6.37;;;2.33;;
64367;SDS011;50692;53.314;-6.300;2023-05-16T06:10:49;6.57;;;2.40;;
64367;SDS011;50692;53.314;-6.300;2023-05-16T06:13:35;4.60;;;2.17;;
64367;SDS011;50692;53.314;-6.300;2023-05-16T06:16:24;4.43;;;1.90;;
64367;SDS011;50692;53.314;-6.300;2023-05-16T06:19:10;7.03;;;2.63;;
64367;SDS011;50692;53.314;-6.300;2023-05-16T06:22:00;6.57;;;2.42;;
64367;SDS011;50692;53.314;-6.300;2023-05-16T06:24:46;6.73;;;2.37;;
64367;SDS011;50692;53.314;-6.300;2023-05-16T06:27:32;8.73;;;2.70;;
64367;SDS011;50692;53.314;-6.300;2023-05-16T06:30:17;8.00;;;2.67;;
64367;SDS011;50692;53.314;-6.300;2023-05-16T06:33:03;12.63;;;3.60;;
64367;SDS011;50692;53.314;-6.300;2023-05-16T06:35:49;7.37;;;3.20;;
64367;SDS011;50692;53.314;-6.300;2023-05-16T06:38:36;8.13;;;3.63;;
64367;SDS011;50692;53.314;-6.300;2023-05-16T06:41:22;9.03;;;2.93;;
64367;SDS011;50692;53.314;-6.300;2023-05-16T06:44:08;6.07;;;3.07;;
64367;SDS011;50692;53.314;-6.300;2023-05-16T06:46:54;10.17;;;2.93;;
64367;SDS011;50692;53.314;-6.300;2023-05-16T06:49:40;6.77;;;2.33;;
64367;SDS011;50692;53.314;-6.300;2023-05-16T06:52:25;4.67;;;2.43;;
64367;SDS011;50692;53.314;-6.300;2023-05-16T06:55:11;7.17;;;2.90;;
64367;SDS011;50692;53.314;-6.300;2023-05-16T06:57:57;6.17;;;2.60;;
64367;SDS011;50692;53.314;-6.300;2023-05-16T07:00:44;6.93;;;2.37;;
64367;SDS011;50692;53.314;-6.300;2023-05-16T07:03:30;8.33;;;2.70;;
64367;SDS011;50692;53.314;-6.300;2023-05-16T07:06:16;6.20;;;2.80;;
64367;SDS011;50692;53.314;-6.300;2023-05-16T07:09:02;6.73;;;2.80;;
64367;SDS011;50692;53.314;-6.300;2023-05-16T07:11:48;7.17;;;2.57;;
64367;SDS011;50692;53.314;-6.300;2023-05-16T07:14:34;9.27;;;3.07;;
64367;SDS011;50692;53.314;-6.300;2023-05-16T07:17:20;5.53;;;2.40;;
64367;SDS011;50692;53.314;-6.300;2023-05-16T07:20:07;4.90;;;2.83;;
64367;SDS011;50692;53.314;-6.300;2023-05-16T07:22:57;4.73;;;2.90;;
64367;SDS011;50692;53.314;-6.300;2023-05-16T07:25:44;7.00;;;2.77;;
64367;SDS011;50692;53.314;-6.300;2023-05-16T07:28:29;8.27;;;3.20;;
64367;SDS011;50692;53.314;-6.300;2023-05-16T07:31:15;8.47;;;2.73;;
64367;SDS011;50692;53.314;-6.300;2023-05-16T07:34:01;7.30;;;2.83;;
64367;SDS011;50692;53.314;-6.300;2023-05-16T07:36:47;8.83;;;3.30;;
64367;SDS011;50692;53.314;-6.300;2023-05-16T07:39:33;13.20;;;3.33;;
64367;SDS011;50692;53.314;-6.300;2023-05-16T07:42:19;9.07;;;2.90;;
64367;SDS011;50692;53.314;-6.300;2023-05-16T07:45:05;12.03;;;3.27;;
64367;SDS011;50692;53.314;-6.300;2023-05-16T07:47:51;9.03;;;2.87;;
64367;SDS011;50692;53.314;-6.300;2023-05-16T07:50:37;8.20;;;2.97;;
64367;SDS011;50692;53.314;-6.300;2023-05-16T07:53:23;5.30;;;2.93;;
64367;SDS011;50692;53.314;-6.300;2023-05-16T07:56:09;9.00;;;2.90;;
64367;SDS011;50692;53.314;-6.300;2023-05-16T07:58:55;12.17;;;3.60;;
64367;SDS011;50692;53.314;-6.300;2023-05-16T08:01:41;8.10;;;3.83;;
64367;SDS011;50692;53.314;-6.300;2023-05-16T08:04:27;6.03;;;3.07;;
64367;SDS011;50692;53.314;-6.300;2023-05-16T08:07:13;8.03;;;3.27;;
64367;SDS011;50692;53.314;-6.300;2023-05-16T08:09:59;9.07;;;3.43;;
64367;SDS011;50692;53.314;-6.300;2023-05-16T08:12:44;7.50;;;3.70;;
64367;SDS011;50692;53.314;-6.300;2023-05-16T08:15:31;7.37;;;3.30;;
64367;SDS011;50692;53.314;-6.300;2023-05-16T08:18:17;8.03;;;3.40;;
64367;SDS011;50692;53.314;-6.300;2023-05-16T08:21:03;10.50;;;3.22;;
64367;SDS011;50692;53.314;-6.300;2023-05-16T08:23:49;8.10;;;3.33;;
64367;SDS011;50692;53.314;-6.300;2023-05-16T08:26:35;8.73;;;3.45;;
64367;SDS011;50692;53.314;-6.300;2023-05-16T08:29:21;10.65;;;3.80;;
64367;SDS011;50692;53.314;-6.300;2023-05-16T08:32:08;9.75;;;3.20;;
64367;SDS011;50692;53.314;-6.300;2023-05-16T08:34:55;10.85;;;3.58;;
64367;SDS011;50692;53.314;-6.300;2023-05-16T08:37:41;9.85;;;3.50;;
64367;SDS011;50692;53.314;-6.300;2023-05-16T08:40:26;7.10;;;3.50;;
64367;SDS011;50692;53.314;-6.300;2023-05-16T08:43:13;10.00;;;3.42;;
64367;SDS011;50692;53.314;-6.300;2023-05-16T08:45:59;10.15;;;3.30;;
64367;SDS011;50692;53.314;-6.300;2023-05-16T08:48:45;10.57;;;3.40;;
64367;SDS011;50692;53.314;-6.300;2023-05-16T08:51:32;6.13;;;2.78;;
64367;SDS011;50692;53.314;-6.300;2023-05-16T08:54:21;9.02;;;3.55;;
64367;SDS011;50692;53.314;-6.300;2023-05-16T08:57:07;7.05;;;3.33;;
64367;SDS011;50692;53.314;-6.300;2023-05-16T08:59:54;7.55;;;3.17;;
64367;SDS011;50692;53.314;-6.300;2023-05-16T09:02:42;8.15;;;3.10;;
64367;SDS011;50692;53.314;-6.300;2023-05-16T09:05:29;9.02;;;3.45;;
64367;SDS011;50692;53.314;-6.300;2023-05-16T09:08:15;9.52;;;3.03;;
64367;SDS011;50692;53.314;-6.300;2023-05-16T09:11:02;7.15;;;2.92;;
64367;SDS011;50692;53.314;-6.300;2023-05-16T09:13:48;9.05;;;3.55;;
64367;SDS011;50692;53.314;-6.300;2023-05-16T09:16:34;9.60;;;3.30;;
64367;SDS011;50692;53.314;-6.300;2023-05-16T09:19:20;8.82;;;3.35;;
64367;SDS011;50692;53.314;-6.300;2023-05-16T09:22:08;10.75;;;3.67;;
64367;SDS011;50692;53.314;-6.300;2023-05-16T09:24:56;8.70;;;3.35;;
64367;SDS011;50692;53.314;-6.300;2023-05-16T09:27:45;8.55;;;3.22;;
64367;SDS011;50692;53.314;-6.300;2023-05-16T09:30:33;8.15;;;3.50;;
64367;SDS011;50692;53.314;-6.300;2023-05-16T09:33:22;6.25;;;2.78;;
64367;SDS011;50692;53.314;-6.300;2023-05-16T09:36:08;7.07;;;2.78;;
64367;SDS011;50692;53.314;-6.300;2023-05-16T09:38:54;6.10;;;2.85;;
64367;SDS011;50692;53.314;-6.300;2023-05-16T09:41:40;6.00;;;2.70;;
64367;SDS011;50692;53.314;-6.300;2023-05-16T09:44:26;7.45;;;3.40;;
64367;SDS011;50692;53.314;-6.300;2023-05-16T09:47:13;11.75;;;3.10;;
64367;SDS011;50692;53.314;-6.300;2023-05-16T09:50:03;4.97;;;3.00;;
64367;SDS011;50692;53.314;-6.300;2023-05-16T09:52:49;7.53;;;2.55;;
64367;SDS011;50692;53.314;-6.300;2023-05-16T09:55:35;8.20;;;3.00;;
64367;SDS011;50692;53.314;-6.300;2023-05-16T09:58:22;5.50;;;2.80;;
64367;SDS011;50692;53.314;-6.300;2023-05-16T10:01:13;7.78;;;3.15;;
64367;SDS011;50692;53.314;-6.300;2023-05-16T10:03:59;5.35;;;2.72;;
64367;SDS011;50692;53.314;-6.300;2023-05-16T10:06:45;5.43;;;2.80;;
64367;SDS011;50692;53.314;-6.300;2023-05-16T10:09:32;7.25;;;3.47;;
64367;SDS011;50692;53.314;-6.300;2023-05-16T10:12:18;6.97;;;3.30;;
64367;SDS011;50692;53.314;-6.300;2023-05-16T10:15:10;6.70;;;3.30;;
64367;SDS011;50692;53.314;-6.300;2023-05-16T10:17:56;8.55;;;2.90;;
64367;SDS011;50692;53.314;-6.300;2023-05-16T10:20:45;7.38;;;3.22;;
64367;SDS011;50692;53.314;-6.300;2023-05-16T10:23:33;9.05;;;3.50;;
64367;SDS011;50692;53.314;-6.300;2023-05-16T10:26:20;8.52;;;3.58;;
64367;SDS011;50692;53.314;-6.300;2023-05-16T10:29:08;6.57;;;3.10;;
64367;SDS011;50692;53.314;-6.300;2023-05-16T10:31:54;7.60;;;3.47;;
64367;SDS011;50692;53.314;-6.300;2023-05-16T10:34:40;6.68;;;2.97;;
64367;SDS011;50692;53.314;-6.300;2023-05-16T10:37:28;6.80;;;3.05;;
64367;SDS011;50692;53.314;-6.300;2023-05-16T10:40:15;8.07;;;3.20;;
64367;SDS011;50692;53.314;-6.300;2023-05-16T10:43:03;6.78;;;3.40;;
64367;SDS011;50692;53.314;-6.300;2023-05-16T10:45:54;8.80;;;3.17;;
64367;SDS011;50692;53.314;-6.300;2023-05-16T10:48:41;8.75;;;3.42;;
64367;SDS011;50692;53.314;-6.300;2023-05-16T10:51:37;7.78;;;3.30;;
64367;SDS011;50692;53.314;-6.300;2023-05-16T10:54:24;4.82;;;2.78;;
64367;SDS011;50692;53.314;-6.300;2023-05-16T10:57:22;8.73;;;3.38;;
64367;SDS011;50692;53.314;-6.300;2023-05-16T11:00:09;6.13;;;2.78;;
64367;SDS011;50692;53.314;-6.300;2023-05-16T11:03:06;6.13;;;3.30;;
64367;SDS011;50692;53.314;-6.300;2023-05-16T11:06:09;8.45;;;3.03;;
64367;SDS011;50692;53.314;-6.300;2023-05-16T11:14:40;7.95;;;3.20;;
64367;SDS011;50692;53.314;-6.300;2023-05-16T11:17:37;9.40;;;3.83;;
64367;SDS011;50692;53.314;-6.300;2023-05-16T11:20:32;7.05;;;3.22;;
64367;SDS011;50692;53.314;-6.300;2023-05-16T11:23:23;4.80;;;2.80;;
64367;SDS011;50692;53.314;-6.300;2023-05-16T11:26:10;6.85;;;3.60;;
64367;SDS011;50692;53.314;-6.300;2023-05-16T11:28:57;7.72;;;3.30;;
64367;SDS011;50692;53.314;-6.300;2023-05-16T11:31:43;7.75;;;3.05;;
64367;SDS011;50692;53.314;-6.300;2023-05-16T11:34:30;6.60;;;3.08;;
64367;SDS011;50692;53.314;-6.300;2023-05-16T11:37:20;5.18;;;3.53;;
64367;SDS011;50692;53.314;-6.300;2023-05-16T11:40:06;6.32;;;3.42;;
64367;SDS011;50692;53.314;-6.300;2023-05-16T11:42:54;7.30;;;3.78;;
64367;SDS011;50692;53.314;-6.300;2023-05-16T11:45:44;5.32;;;2.97;;
64367;SDS011;50692;53.314;-6.300;2023-05-16T11:48:30;5.53;;;3.17;;
64367;SDS011;50692;53.314;-6.300;2023-05-16T11:51:19;5.72;;;3.28;;
64367;SDS011;50692;53.314;-6.300;2023-05-16T11:54:06;6.93;;;3.55;;
64367;SDS011;50692;53.314;-6.300;2023-05-16T11:56:54;7.63;;;3.58;;
64367;SDS011;50692;53.314;-6.300;2023-05-16T11:59:40;6.35;;;3.83;;
64367;SDS011;50692;53.314;-6.300;2023-05-16T12:02:27;6.35;;;3.00;;
64367;SDS011;50692;53.314;-6.300;2023-05-16T12:05:14;9.75;;;4.05;;
64367;SDS011;50692;53.314;-6.300;2023-05-16T12:08:04;6.90;;;3.58;;
64367;SDS011;50692;53.314;-6.300;2023-05-16T12:10:51;6.72;;;3.17;;
64367;SDS011;50692;53.314;-6.300;2023-05-16T12:13:38;5.05;;;3.10;;
64367;SDS011;50692;53.314;-6.300;2023-05-16T12:16:24;5.28;;;3.20;;
64367;SDS011;50692;53.314;-6.300;2023-05-16T12:19:10;6.47;;;3.50;;
64367;SDS011;50692;53.314;-6.300;2023-05-16T12:21:56;5.93;;;3.08;;
64367;SDS011;50692;53.314;-6.300;2023-05-16T12:24:42;7.00;;;3.28;;
64367;SDS011;50692;53.314;-6.300;2023-05-16T12:27:28;5.75;;;3.50;;
64367;SDS011;50692;53.314;-6.300;2023-05-16T12:30:17;4.00;;;2.80;;
64367;SDS011;50692;53.314;-6.300;2023-05-16T12:33:12;6.60;;;2.80;;
64367;SDS011;50692;53.314;-6.300;2023-05-16T12:35:59;4.97;;;3.17;;
64367;SDS011;50692;53.314;-6.300;2023-05-16T12:38:46;4.88;;;3.13;;
64367;SDS011;50692;53.314;-6.300;2023-05-16T12:41:32;5.63;;;3.22;;
64367;SDS011;50692;53.314;-6.300;2023-05-16T12:44:28;7.25;;;3.40;;
64367;SDS011;50692;53.314;-6.300;2023-05-16T12:47:17;5.32;;;3.35;;
64367;SDS011;50692;53.314;-6.300;2023-05-16T12:50:07;7.18;;;3.53;;
64367;SDS011;50692;53.314;-6.300;2023-05-16T12:52:57;6.55;;;3.28;;
64367;SDS011;50692;53.314;-6.300;2023-05-16T12:55:44;6.53;;;2.97;;
64367;SDS011;50692;53.314;-6.300;2023-05-16T12:58:30;6.03;;;3.28;;
64367;SDS011;50692;53.314;-6.300;2023-05-16T13:01:16;7.47;;;3.28;;
64367;SDS011;50692;53.314;-6.300;2023-05-16T13:04:01;7.15;;;3.65;;
64367;SDS011;50692;53.314;-6.300;2023-05-16T13:06:48;6.35;;;3.53;;
64367;SDS011;50692;53.314;-6.300;2023-05-16T13:09:34;4.50;;;3.03;;
64367;SDS011;50692;53.314;-6.300;2023-05-16T13:12:20;6.00;;;2.97;;
64367;SDS011;50692;53.314;-6.300;2023-05-16T13:15:07;4.53;;;3.00;;
64367;SDS011;50692;53.314;-6.300;2023-05-16T13:17:54;5.97;;;3.42;;
64367;SDS011;50692;53.314;-6.300;2023-05-16T13:20:40;6.00;;;2.85;;
64367;SDS011;50692;53.314;-6.300;2023-05-16T13:23:26;6.75;;;3.15;;
64367;SDS011;50692;53.314;-6.300;2023-05-16T13:26:12;5.65;;;3.05;;
64367;SDS011;50692;53.314;-6.300;2023-05-16T13:28:58;8.80;;;3.35;;
64367;SDS011;50692;53.314;-6.300;2023-05-16T13:31:43;5.15;;;2.95;;
64367;SDS011;50692;53.314;-6.300;2023-05-16T13:34:29;8.23;;;3.17;;
64367;SDS011;50692;53.314;-6.300;2023-05-16T13:37:16;6.03;;;2.88;;
64367;SDS011;50692;53.314;-6.300;2023-05-16T13:40:03;7.32;;;3.47;;
64367;SDS011;50692;53.314;-6.300;2023-05-16T13:42:49;5.90;;;3.10;;
64367;SDS011;50692;53.314;-6.300;2023-05-16T13:45:35;6.90;;;3.45;;
64367;SDS011;50692;53.314;-6.300;2023-05-16T13:48:21;6.05;;;3.92;;
64367;SDS011;50692;53.314;-6.300;2023-05-16T13:51:07;6.90;;;3.08;;
64367;SDS011;50692;53.314;-6.300;2023-05-16T13:53:55;6.18;;;2.65;;
64367;SDS011;50692;53.314;-6.300;2023-05-16T13:56:41;4.82;;;2.65;;
64367;SDS011;50692;53.314;-6.300;2023-05-16T13:59:27;5.22;;;2.40;;
64367;SDS011;50692;53.314;-6.300;2023-05-16T14:02:13;6.40;;;2.55;;
64367;SDS011;50692;53.314;-6.300;2023-05-16T14:04:59;5.25;;;2.75;;
64367;SDS011;50692;53.314;-6.300;2023-05-16T14:07:45;7.68;;;2.70;;
64367;SDS011;50692;53.314;-6.300;2023-05-16T14:10:31;4.47;;;2.63;;
64367;SDS011;50692;53.314;-6.300;2023-05-16T14:13:17;4.85;;;2.75;;
64367;SDS011;50692;53.314;-6.300;2023-05-16T14:16:03;5.13;;;3.00;;
64367;SDS011;50692;53.314;-6.300;2023-05-16T14:18:49;4.18;;;2.75;;
64367;SDS011;50692;53.314;-6.300;2023-05-16T14:21:35;4.00;;;2.28;;
64367;SDS011;50692;53.314;-6.300;2023-05-16T14:24:21;5.15;;;2.58;;
64367;SDS011;50692;53.314;-6.300;2023-05-16T14:27:07;6.28;;;3.28;;
64367;SDS011;50692;53.314;-6.300;2023-05-16T14:29:53;5.25;;;2.75;;
64367;SDS011;50692;53.314;-6.300;2023-05-16T14:32:38;5.05;;;2.83;;
64367;SDS011;50692;53.314;-6.300;2023-05-16T14:35:24;5.75;;;2.90;;
64367;SDS011;50692;53.314;-6.300;2023-05-16T14:38:10;4.95;;;3.00;;
64367;SDS011;50692;53.314;-6.300;2023-05-16T14:40:56;3.55;;;2.45;;
64367;SDS011;50692;53.314;-6.300;2023-05-16T14:43:42;5.97;;;2.88;;
64367;SDS011;50692;53.314;-6.300;2023-05-16T14:46:29;5.55;;;2.45;;
64367;SDS011;50692;53.314;-6.300;2023-05-16T14:49:16;5.45;;;2.38;;
64367;SDS011;50692;53.314;-6.300;2023-05-16T14:52:02;4.00;;;2.53;;
64367;SDS011;50692;53.314;-6.300;2023-05-16T14:54:48;6.13;;;2.78;;
64367;SDS011;50692;53.314;-6.300;2023-05-16T14:57:34;6.35;;;2.72;;
64367;SDS011;50692;53.314;-6.300;2023-05-16T15:00:22;5.68;;;2.60;;
64367;SDS011;50692;53.314;-6.300;2023-05-16T15:03:09;3.95;;;2.80;;
64367;SDS011;50692;53.314;-6.300;2023-05-16T15:05:55;4.20;;;2.40;;
64367;SDS011;50692;53.314;-6.300;2023-05-16T15:08:40;6.13;;;2.58;;
64367;SDS011;50692;53.314;-6.300;2023-05-16T15:11:27;5.55;;;2.80;;
64367;SDS011;50692;53.314;-6.300;2023-05-16T15:14:13;5.03;;;2.30;;
64367;SDS011;50692;53.314;-6.300;2023-05-16T15:16:59;4.15;;;2.25;;
64367;SDS011;50692;53.314;-6.300;2023-05-16T15:19:45;4.45;;;2.70;;
64367;SDS011;50692;53.314;-6.300;2023-05-16T15:22:33;5.20;;;2.25;;
64367;SDS011;50692;53.314;-6.300;2023-05-16T15:25:19;5.97;;;2.72;;
64367;SDS011;50692;53.314;-6.300;2023-05-16T15:28:05;5.03;;;2.50;;
64367;SDS011;50692;53.314;-6.300;2023-05-16T15:30:51;4.95;;;2.78;;
64367;SDS011;50692;53.314;-6.300;2023-05-16T15:33:37;4.82;;;2.40;;
64367;SDS011;50692;53.314;-6.300;2023-05-16T15:36:23;5.22;;;2.42;;
64367;SDS011;50692;53.314;-6.300;2023-05-16T15:39:09;4.43;;;2.40;;
64367;SDS011;50692;53.314;-6.300;2023-05-16T15:41:55;5.90;;;2.50;;
64367;SDS011;50692;53.314;-6.300;2023-05-16T15:44:41;4.38;;;2.50;;
64367;SDS011;50692;53.314;-6.300;2023-05-16T15:47:27;4.13;;;2.30;;
64367;SDS011;50692;53.314;-6.300;2023-05-16T15:50:13;3.97;;;2.45;;
64367;SDS011;50692;53.314;-6.300;2023-05-16T15:52:59;4.88;;;2.40;;
64367;SDS011;50692;53.314;-6.300;2023-05-16T15:55:44;4.78;;;2.40;;
64367;SDS011;50692;53.314;-6.300;2023-05-16T15:58:32;4.97;;;2.70;;
64367;SDS011;50692;53.314;-6.300;2023-05-16T16:01:18;5.30;;;2.80;;
64367;SDS011;50692;53.314;-6.300;2023-05-16T16:04:03;5.90;;;2.50;;
64367;SDS011;50692;53.314;-6.300;2023-05-16T16:06:49;5.65;;;2.70;;
64367;SDS011;50692;53.314;-6.300;2023-05-16T16:09:35;5.30;;;2.60;;
64367;SDS011;50692;53.314;-6.300;2023-05-16T16:12:21;4.55;;;2.72;;
64367;SDS011;50692;53.314;-6.300;2023-05-16T16:15:08;5.88;;;2.80;;
64367;SDS011;50692;53.314;-6.300;2023-05-16T16:17:57;4.68;;;2.40;;
64367;SDS011;50692;53.314;-6.300;2023-05-16T16:20:43;3.63;;;2.50;;
64367;SDS011;50692;53.314;-6.300;2023-05-16T16:23:29;4.43;;;2.40;;
64367;SDS011;50692;53.314;-6.300;2023-05-16T16:26:15;6.03;;;2.75;;
64367;SDS011;50692;53.314;-6.300;2023-05-16T16:29:02;4.38;;;2.50;;
64367;SDS011;50692;53.314;-6.300;2023-05-16T16:31:48;5.20;;;2.45;;
64367;SDS011;50692;53.314;-6.300;2023-05-16T16:34:34;4.72;;;2.30;;
64367;SDS011;50692;53.314;-6.300;2023-05-16T16:37:20;3.83;;;2.08;;
64367;SDS011;50692;53.314;-6.300;2023-05-16T16:40:06;3.60;;;2.10;;
64367;SDS011;50692;53.314;-6.300;2023-05-16T16:42:53;6.72;;;2.45;;